KMOB/MOB METAR and TAF weather

Enter ICAO airport designator
Station Type Date Time Source
KMOB METAR 2021/05/12 01:56 UTC NOAA

KMOB 120156Z 00000KT 10SM FEW120 SCT200 19/19 A3004 RMK AO2 SLP169 T01940194


Station Type Date Time Source
KMOB Decoded METAR 2021/05/12 01:56 UTC NOAA

MOBILE REGIONAL AIRPORT, AL, United States (KMOB) 30-41N 88-14W 67M
May 11, 2021 - 09:56 PM EDT / 2021.05.12 0156 UTC
Wind: Calm:0
Visibility: 10 mile(s):0
Sky conditions: partly cloudy
Temperature: 66.9 F (19.4 C)
Dew Point: 66.9 F (19.4 C)
Relative Humidity: 100%
Pressure (altimeter): 30.04 in. Hg (1017 hPa)
ob: KMOB 120156Z 00000KT 10SM FEW120 SCT200 19/19 A3004 RMK AO2 SLP169 T01940194
cycle: 2

Station Type Date Time Source
KMOB TAF 2021/05/11 18:42 UTC NOAA

TAF
AMD KMOB 111739Z 1118/1218 26010G22KT 3SM TSRA BR BKN005 OVC040CB
FM112000 16006KT 6SM TSRA BKN040CB
TEMPO 1120/1124 4SM TSRA OVC025CB
FM120300 00000KT 6SM SHRA VCTS OVC040CB
FM120700 00000KT 6SM SHRA VCTS OVC018CB
FM120800 00000KT 6SM SHRA VCTS OVC009CB

Example: see airport list